createdAt,value
2023-01-22T00:00:19.938Z,98839.50
2023-01-22T00:02:49.245Z,98841.44
2023-01-22T00:05:17.976Z,98845.72
2023-01-22T00:07:47.656Z,98839.84
2023-01-22T00:10:16.217Z,98856.50
2023-01-22T00:12:44.363Z,98848.63
2023-01-22T00:15:12.529Z,98840.00
2023-01-22T00:17:40.522Z,98836.50
2023-01-22T00:20:10.583Z,98843.44
2023-01-22T00:22:38.746Z,98837.53
2023-01-22T00:25:11.440Z,98845.25
2023-01-22T00:27:41.826Z,98842.63
2023-01-22T00:30:11.476Z,98838.22
2023-01-22T00:32:39.406Z,98836.41
2023-01-22T00:35:08.141Z,98839.06
2023-01-22T00:37:36.103Z,98838.34
2023-01-22T00:40:07.527Z,98829.47
2023-01-22T00:42:36.861Z,98828.84
2023-01-22T00:45:05.381Z,98838.09
2023-01-22T00:47:33.407Z,98835.63
2023-01-22T00:50:01.491Z,98826.94
2023-01-22T00:52:30.376Z,98825.13
2023-01-22T00:54:59.772Z,98830.41
2023-01-22T00:57:27.833Z,98828.66
2023-01-22T00:59:57.336Z,98839.00
2023-01-22T01:02:25.396Z,98835.53
2023-01-22T01:04:54.029Z,98833.75
2023-01-22T01:07:22.032Z,98832.81
2023-01-22T01:09:50.090Z,98830.38
2023-01-22T01:12:18.425Z,98831.28
2023-01-22T01:14:47.659Z,98824.09
2023-01-22T01:17:17.069Z,98822.50
2023-01-22T01:19:45.114Z,98825.09
2023-01-22T01:22:16.771Z,98818.97
2023-01-22T01:24:44.787Z,98829.47
2023-01-22T01:27:12.848Z,98821.69
2023-01-22T01:29:40.865Z,98819.94
2023-01-22T01:32:10.713Z,98828.50
2023-01-22T01:34:40.070Z,98826.03
2023-01-22T01:37:08.062Z,98828.69
2023-01-22T01:39:36.160Z,98811.06
2023-01-22T01:42:04.519Z,98825.97
2023-01-22T01:44:32.815Z,98823.28
2023-01-22T01:47:02.148Z,98818.91
2023-01-22T01:49:33.144Z,98824.94
2023-01-22T01:52:04.399Z,98818.97
2023-01-22T01:54:32.790Z,98812.81
2023-01-22T01:57:03.275Z,98818.19
2023-01-22T01:59:33.627Z,98825.09
2023-01-22T02:02:03.123Z,98831.22
2023-01-22T02:04:31.326Z,98823.00
2023-01-22T02:06:59.330Z,98831.16
2023-01-22T02:09:28.847Z,98825.00
2023-01-22T02:11:56.813Z,98832.03
2023-01-22T02:14:28.025Z,98834.66
2023-01-22T02:17:02.989Z,98823.97
2023-01-22T02:19:31.126Z,98824.22
2023-01-22T02:22:00.614Z,98827.53
2023-01-22T02:24:30.736Z,98819.63
2023-01-22T02:26:58.763Z,98822.19
2023-01-22T02:29:29.019Z,98819.56
2023-01-22T02:31:57.565Z,98827.72
2023-01-22T02:34:25.580Z,98827.44
2023-01-22T02:36:53.611Z,98841.50
2023-01-22T02:39:23.016Z,98831.78
2023-01-22T02:41:51.035Z,98827.34
2023-01-22T02:44:19.359Z,98829.91
2023-01-22T02:46:47.503Z,98834.50
2023-01-22T02:49:15.731Z,98833.59
2023-01-22T02:51:43.769Z,98828.16
2023-01-22T02:54:12.193Z,98827.34
2023-01-22T02:56:41.635Z,98820.41
2023-01-22T02:59:09.892Z,98825.66
2023-01-22T03:01:38.329Z,98817.91
2023-01-22T03:04:10.971Z,98821.31
2023-01-22T03:06:39.824Z,98813.31
2023-01-22T03:09:08.104Z,98817.78
2023-01-22T03:11:36.845Z,98815.00
2023-01-22T03:14:23.762Z,98801.97
2023-01-22T03:17:09.544Z,98802.13
2023-01-22T03:19:54.930Z,98799.41
2023-01-22T03:22:22.928Z,98799.56
2023-01-22T03:24:53.034Z,98796.03
2023-01-22T03:27:21.852Z,98795.19
2023-01-22T03:29:51.325Z,98794.31
2023-01-22T03:32:20.062Z,98794.28
2023-01-22T03:34:48.261Z,98795.16
2023-01-22T03:37:16.320Z,98792.59
2023-01-22T03:39:44.361Z,98803.91
2023-01-22T03:42:12.356Z,98789.22
2023-01-22T03:44:40.625Z,98796.06
2023-01-22T03:47:10.066Z,98800.50
2023-01-22T03:49:38.575Z,98799.50
2023-01-22T03:52:06.590Z,98798.59
2023-01-22T03:54:35.025Z,98798.84
2023-01-22T03:57:03.518Z,98799.69
2023-01-22T03:59:31.680Z,98804.00
2023-01-22T04:01:59.663Z,98792.47
2023-01-22T04:04:29.178Z,98798.69
2023-01-22T04:06:57.162Z,98796.81
2023-01-22T04:09:25.243Z,98803.03
2023-01-22T04:11:53.239Z,98800.50
2023-01-22T04:14:21.186Z,98803.97
2023-01-22T04:16:52.236Z,98800.38
2023-01-22T04:19:20.235Z,98808.97
2023-01-22T04:21:49.903Z,98802.94
2023-01-22T04:24:19.496Z,98797.81
2023-01-22T04:26:47.730Z,98795.88
2023-01-22T04:29:15.719Z,98804.66
2023-01-22T04:31:44.522Z,98798.66
2023-01-22T04:34:12.529Z,98799.44
2023-01-22T04:36:40.577Z,98798.44
2023-01-22T04:39:09.957Z,98797.56
2023-01-22T04:41:37.992Z,98803.03
2023-01-22T04:44:06.172Z,98795.34
2023-01-22T04:46:36.909Z,98795.97
2023-01-22T04:49:04.923Z,98784.59
2023-01-22T04:51:33.179Z,98788.97
2023-01-22T04:54:04.080Z,98786.38
2023-01-22T04:56:33.542Z,98794.28
2023-01-22T04:59:01.689Z,98793.41
2023-01-22T05:01:29.853Z,98803.00
2023-01-22T05:03:57.952Z,98803.88
2023-01-22T05:06:26.457Z,98795.00
2023-01-22T05:08:54.561Z,98797.75
2023-01-22T05:11:22.558Z,98799.44
2023-01-22T05:13:52.002Z,98793.16
2023-01-22T05:16:20.050Z,98789.56
2023-01-22T05:18:48.223Z,98794.19
2023-01-22T05:21:16.194Z,98791.53
2023-01-22T05:23:44.752Z,98800.28
2023-01-22T05:26:12.745Z,98789.75
2023-01-22T05:28:41.138Z,98794.28
2023-01-22T05:31:11.278Z,98787.94
2023-01-22T05:33:40.307Z,98792.38
2023-01-22T05:36:08.599Z,98797.56
2023-01-22T05:38:36.661Z,98796.56
2023-01-22T05:41:05.041Z,98798.34
2023-01-22T05:43:33.138Z,98798.41
2023-01-22T05:46:02.009Z,98798.34
2023-01-22T05:48:33.147Z,98803.72
2023-01-22T05:51:04.777Z,98803.78
2023-01-22T05:53:33.045Z,98804.56
2023-01-22T05:56:02.742Z,98804.50
2023-01-22T05:58:30.866Z,98799.31
2023-01-22T06:00:59.014Z,98801.06
2023-01-22T06:03:27.072Z,98794.94
2023-01-22T06:06:02.974Z,98803.56
2023-01-22T06:08:31.988Z,98814.13
2023-01-22T06:11:02.219Z,98801.84
2023-01-22T06:13:30.311Z,98806.22
2023-01-22T06:15:58.371Z,98810.72
2023-01-22T06:18:26.343Z,98802.91
2023-01-22T06:20:54.451Z,98804.63
2023-01-22T06:23:26.021Z,98793.19
2023-01-22T06:25:54.139Z,98793.94
2023-01-22T06:28:22.154Z,98785.28
2023-01-22T06:30:50.678Z,98786.03
2023-01-22T06:33:19.115Z,98797.44
2023-01-22T06:35:47.133Z,98793.19
2023-01-22T06:38:15.094Z,98795.59
2023-01-22T06:40:44.581Z,98797.16
2023-01-22T06:43:12.574Z,98793.03
2023-01-22T06:45:40.568Z,98798.25
2023-01-22T06:48:08.597Z,98798.41
2023-01-22T06:50:36.718Z,98799.16
2023-01-22T06:53:05.966Z,98806.94
2023-01-22T06:55:34.261Z,98803.69
2023-01-22T06:58:06.635Z,98815.84
2023-01-22T07:00:34.747Z,98816.75
2023-01-22T07:03:06.166Z,98818.66
2023-01-22T07:05:34.523Z,98831.81
2023-01-22T07:08:02.815Z,98834.25
2023-01-22T07:10:30.820Z,98837.72
2023-01-22T07:13:00.043Z,98835.28
2023-01-22T07:15:29.481Z,98847.41
2023-01-22T07:17:57.487Z,98854.41
2023-01-22T07:20:25.445Z,98853.56
2023-01-22T07:22:53.478Z,98851.84
2023-01-22T07:25:21.958Z,98849.16
2023-01-22T07:27:53.410Z,98857.91
2023-01-22T07:30:21.735Z,98860.53
2023-01-22T07:32:51.809Z,98863.22
2023-01-22T07:35:20.581Z,98869.47
2023-01-22T07:37:52.827Z,98862.34
2023-01-22T07:40:21.119Z,98856.19
2023-01-22T07:42:49.289Z,98863.19
2023-01-22T07:45:19.275Z,98860.56
2023-01-22T07:47:54.915Z,98878.28
2023-01-22T07:50:24.033Z,98876.47
2023-01-22T07:52:52.144Z,98872.97
2023-01-22T07:55:20.252Z,98879.66
2023-01-22T07:57:50.703Z,98884.22
2023-01-22T08:00:19.781Z,98872.72
2023-01-22T08:02:50.222Z,98886.69
2023-01-22T08:05:20.115Z,98887.50
2023-01-22T08:07:48.233Z,98886.69
2023-01-22T08:10:17.355Z,98894.47
2023-01-22T08:12:46.784Z,98887.50
2023-01-22T08:15:14.958Z,98893.56
2023-01-22T08:17:43.332Z,98892.69
2023-01-22T08:20:12.525Z,98897.94
2023-01-22T08:22:41.937Z,98899.63
2023-01-22T08:25:10.790Z,98902.34
2023-01-22T08:27:38.904Z,98892.66
2023-01-22T08:30:09.010Z,98897.91
2023-01-22T08:32:37.197Z,98897.16
2023-01-22T08:35:05.627Z,98902.34
2023-01-22T08:37:33.852Z,98890.06
2023-01-22T08:40:03.667Z,98904.09
2023-01-22T08:42:32.658Z,98897.00
2023-01-22T08:45:02.753Z,98900.53
2023-01-22T08:47:30.980Z,98901.44
2023-01-22T08:49:58.941Z,98901.28
2023-01-22T08:52:27.134Z,98891.47
2023-01-22T08:54:55.761Z,98897.69
2023-01-22T08:57:25.111Z,98898.59
2023-01-22T09:00:01.090Z,98892.50
2023-01-22T09:02:30.197Z,98894.19
2023-01-22T09:04:58.248Z,98886.38
2023-01-22T09:07:26.410Z,98889.75
2023-01-22T09:09:55.640Z,98886.25
2023-01-22T09:12:25.062Z,98887.00
2023-01-22T09:14:53.086Z,98894.94
2023-01-22T09:17:21.216Z,98896.69
2023-01-22T09:19:50.431Z,98893.19
2023-01-22T09:22:18.777Z,98890.34
2023-01-22T09:24:47.538Z,98894.75
2023-01-22T09:27:15.586Z,98890.34
2023-01-22T09:29:45.131Z,98895.47
2023-01-22T09:32:13.460Z,98891.22
2023-01-22T09:34:41.533Z,98879.81
2023-01-22T09:37:10.406Z,98890.97
2023-01-22T09:39:38.487Z,98896.22
2023-01-22T09:42:06.698Z,98908.50
2023-01-22T09:44:38.889Z,98893.38
2023-01-22T09:47:10.845Z,98891.66
2023-01-22T09:49:40.045Z,98893.41
2023-01-22T09:52:08.282Z,98903.09
2023-01-22T09:54:36.327Z,98903.03
2023-01-22T09:57:06.223Z,98909.44
2023-01-22T09:59:38.693Z,98910.88
2023-01-22T10:02:23.155Z,98902.28
2023-01-22T10:04:53.113Z,98912.41
2023-01-22T10:07:25.352Z,98912.53
2023-01-22T10:09:54.805Z,98919.63
2023-01-22T10:12:22.883Z,98909.09
2023-01-22T10:14:50.974Z,98915.56
2023-01-22T10:17:21.333Z,98917.38
2023-01-22T10:19:51.517Z,98913.19
2023-01-22T10:22:21.166Z,98913.91
2023-01-22T10:24:50.837Z,98904.28
2023-01-22T10:27:20.002Z,98904.22
2023-01-22T10:29:57.389Z,98897.44
2023-01-22T10:32:27.934Z,98909.28
2023-01-22T10:35:00.492Z,98899.72
2023-01-22T10:37:29.448Z,98901.84
2023-01-22T10:39:58.745Z,98900.28
2023-01-22T10:42:27.979Z,98893.91
2023-01-22T10:44:56.552Z,98893.66
2023-01-22T10:47:27.945Z,98890.22
2023-01-22T10:50:04.735Z,98894.38
2023-01-22T10:52:36.115Z,98887.56
2023-01-22T10:55:04.651Z,98891.09
2023-01-22T10:57:34.707Z,98886.88
2023-01-22T11:00:07.338Z,98886.50
2023-01-22T11:02:37.219Z,98884.97
2023-01-22T11:05:09.154Z,98882.84
2023-01-22T11:07:37.161Z,98876.81
2023-01-22T11:10:08.434Z,98879.69
2023-01-22T11:12:38.119Z,98881.06
2023-01-22T11:15:07.945Z,98877.53
2023-01-22T11:17:39.626Z,98879.88
2023-01-22T11:20:15.681Z,98887.00
2023-01-22T11:22:45.110Z,98885.41
2023-01-22T11:25:13.618Z,98883.38
2023-01-22T11:27:56.231Z,98889.50
2023-01-22T11:30:54.661Z,98889.31
2023-01-22T11:33:50.967Z,98890.28
2023-01-22T11:36:22.388Z,98885.53
2023-01-22T11:38:52.731Z,98882.78
2023-01-22T11:41:50.703Z,98884.75
2023-01-22T11:44:43.409Z,98882.31
2023-01-22T11:47:23.601Z,98873.31
2023-01-22T11:49:59.505Z,98873.22
2023-01-22T11:52:32.997Z,98870.16
2023-01-22T11:55:40.095Z,98862.84
2023-01-22T11:58:12.737Z,98868.94
2023-01-22T12:00:44.953Z,98869.66
2023-01-22T12:03:33.572Z,98869.72
2023-01-22T12:06:12.983Z,98867.75
2023-01-22T12:08:50.771Z,98867.25
2023-01-22T12:11:26.844Z,98863.16
2023-01-22T12:14:12.996Z,98863.06
2023-01-22T12:16:46.074Z,98859.97
2023-01-22T12:19:28.680Z,98867.56
2023-01-22T12:22:01.206Z,98872.97
2023-01-22T12:24:32.267Z,98865.94
2023-01-22T12:27:03.144Z,98878.19
2023-01-22T12:29:34.739Z,98869.59
2023-01-22T12:32:09.154Z,98876.53
2023-01-22T12:34:41.311Z,98868.66
2023-01-22T12:37:11.929Z,98878.38
2023-01-22T12:39:42.281Z,98869.38
2023-01-22T12:42:17.950Z,98866.47
2023-01-22T12:44:51.825Z,98873.03
2023-01-22T12:47:22.791Z,98879.09
2023-01-22T12:49:52.222Z,98877.59
2023-01-22T12:52:33.183Z,98887.16
2023-01-22T12:55:01.462Z,98885.63
2023-01-22T12:57:37.992Z,98894.38
2023-01-22T13:00:24.014Z,98893.38
2023-01-22T13:02:52.444Z,98892.84
2023-01-22T13:05:23.277Z,98906.00
2023-01-22T13:08:03.349Z,98883.16
2023-01-22T13:10:32.332Z,98895.31
2023-01-22T13:13:02.706Z,98894.41
2023-01-22T13:15:32.388Z,98896.31
2023-01-22T13:18:07.698Z,98896.84
2023-01-22T13:20:36.913Z,98888.78
2023-01-22T13:23:06.586Z,98893.34
2023-01-22T13:25:34.783Z,98894.00
2023-01-22T13:28:04.097Z,98898.66
2023-01-22T13:30:32.853Z,98899.16
2023-01-22T13:33:16.527Z,98896.69
2023-01-22T13:35:44.902Z,98901.91
2023-01-22T13:38:20.408Z,98890.63
2023-01-22T13:40:51.769Z,98892.88
2023-01-22T13:43:20.545Z,98905.00
2023-01-22T13:45:49.089Z,98894.56
2023-01-22T13:48:19.226Z,98907.50
2023-01-22T13:50:48.038Z,98914.47
2023-01-22T13:53:25.260Z,98916.09
2023-01-22T13:55:53.280Z,98915.41
2023-01-22T13:58:48.901Z,98926.47
2023-01-22T14:01:28.397Z,98921.41
2023-01-22T14:03:59.855Z,98927.63
2023-01-22T14:06:27.841Z,98923.88
2023-01-22T14:08:58.158Z,98925.81
2023-01-22T14:11:26.152Z,98923.00
2023-01-22T14:13:54.543Z,98930.44
2023-01-22T14:16:22.541Z,98929.16
2023-01-22T14:18:50.772Z,98939.94
2023-01-22T14:21:18.892Z,98938.16
2023-01-22T14:23:46.955Z,98940.03
2023-01-22T14:26:16.905Z,98940.00
2023-01-22T14:28:44.913Z,98944.38
2023-01-22T14:31:12.956Z,98947.16
2023-01-22T14:33:41.049Z,98950.38
2023-01-22T14:36:10.016Z,98957.41
2023-01-22T14:38:38.018Z,98965.38
2023-01-22T14:41:06.344Z,98969.53
2023-01-22T14:43:36.293Z,98975.06
2023-01-22T14:46:08.275Z,98975.13
2023-01-22T14:48:36.449Z,98975.94
2023-01-22T14:51:10.200Z,98986.47
2023-01-22T14:53:39.137Z,98988.19
2023-01-22T14:56:08.613Z,98995.22
2023-01-22T14:58:37.983Z,98984.69
2023-01-22T15:01:16.119Z,98989.97
2023-01-22T15:03:44.201Z,98993.69
2023-01-22T15:06:12.183Z,98986.56
2023-01-22T15:08:40.488Z,98988.63
2023-01-22T15:11:08.527Z,99000.72
2023-01-22T15:13:37.978Z,98995.53
2023-01-22T15:16:06.922Z,98997.81
2023-01-22T15:18:38.029Z,98997.19
2023-01-22T15:21:06.761Z,99012.78
2023-01-22T15:23:35.441Z,99011.97
2023-01-22T15:26:05.422Z,99006.69
2023-01-22T15:28:33.600Z,99006.69
2023-01-22T15:31:07.799Z,99019.25
2023-01-22T15:33:43.215Z,99020.22
2023-01-22T15:36:13.890Z,99014.00
2023-01-22T15:38:42.034Z,99027.00
2023-01-22T15:41:19.558Z,99020.91
2023-01-22T15:43:50.860Z,99039.53
2023-01-22T15:46:23.589Z,99035.09
2023-01-22T15:48:51.751Z,99039.50
2023-01-22T15:51:20.094Z,99042.06
2023-01-22T15:53:50.866Z,99040.34
2023-01-22T15:56:22.527Z,99047.34
2023-01-22T15:58:51.186Z,99038.69
2023-01-22T16:01:21.191Z,99040.94
2023-01-22T16:03:49.493Z,99044.75
2023-01-22T16:06:18.360Z,99040.19
2023-01-22T16:08:47.099Z,99039.06
2023-01-22T16:11:15.176Z,99040.91
2023-01-22T16:13:43.716Z,99038.44
2023-01-22T16:16:16.754Z,99042.50
2023-01-22T16:18:46.455Z,99046.19
2023-01-22T16:21:14.720Z,99049.78
2023-01-22T16:23:43.870Z,99044.56
2023-01-22T16:26:15.064Z,99045.63
2023-01-22T16:28:43.190Z,99048.13
2023-01-22T16:31:12.972Z,99049.84
2023-01-22T16:33:43.512Z,99052.81
2023-01-22T16:36:16.708Z,99048.72
2023-01-22T16:38:44.669Z,99049.47
2023-01-22T16:41:27.999Z,99047.53
2023-01-22T16:43:59.338Z,99041.41
2023-01-22T16:46:28.456Z,99042.94
2023-01-22T16:48:57.733Z,99051.41
2023-01-22T16:51:28.097Z,99049.53
2023-01-22T16:53:56.328Z,99052.38
2023-01-22T16:56:24.300Z,99054.94
2023-01-22T16:58:52.402Z,99060.25
2023-01-22T17:01:20.834Z,99057.53
2023-01-22T17:03:52.950Z,99061.91
2023-01-22T17:06:31.693Z,99051.19
2023-01-22T17:09:07.839Z,99059.31
2023-01-22T17:11:35.888Z,99061.78
2023-01-22T17:14:08.042Z,99058.13
2023-01-22T17:16:36.039Z,99056.53
2023-01-22T17:19:04.858Z,99050.47
2023-01-22T17:21:34.749Z,99060.03
2023-01-22T17:24:03.905Z,99059.84
2023-01-22T17:26:32.092Z,99056.13
2023-01-22T17:29:00.098Z,99057.31
2023-01-22T17:31:30.039Z,99070.50
2023-01-22T17:33:59.053Z,99068.63
2023-01-22T17:36:28.564Z,99069.44
2023-01-22T17:38:58.135Z,99069.47
2023-01-22T17:41:27.060Z,99065.25
2023-01-22T17:43:57.790Z,99071.41
2023-01-22T17:46:26.911Z,99069.63
2023-01-22T17:48:55.085Z,99074.28
2023-01-22T17:51:24.252Z,99068.88
2023-01-22T17:53:52.695Z,99081.09
2023-01-22T17:56:24.508Z,99085.34
2023-01-22T17:58:54.125Z,99082.75
2023-01-22T18:01:23.743Z,99084.34
2023-01-22T18:03:51.984Z,99087.97
2023-01-22T18:06:20.465Z,99094.13
2023-01-22T18:08:49.360Z,99095.03
2023-01-22T18:11:19.485Z,99099.22
2023-01-22T18:13:49.093Z,99106.09
2023-01-22T18:16:18.237Z,99099.72
2023-01-22T18:18:46.406Z,99107.81
2023-01-22T18:21:16.530Z,99098.25
2023-01-22T18:23:44.616Z,99099.81
2023-01-22T18:26:12.897Z,99098.09
2023-01-22T18:28:40.933Z,99101.56
2023-01-22T18:31:11.807Z,99117.44
2023-01-22T18:33:39.941Z,99105.88
2023-01-22T18:36:10.997Z,99116.56
2023-01-22T18:38:39.047Z,99111.16
2023-01-22T18:41:07.799Z,99114.69
2023-01-22T18:43:36.746Z,99122.69
2023-01-22T18:46:05.195Z,99114.69
2023-01-22T18:48:34.653Z,99119.41
2023-01-22T18:51:02.741Z,99110.78
2023-01-22T18:53:32.660Z,99111.44
2023-01-22T18:56:01.272Z,99111.28
2023-01-22T18:58:30.611Z,99120.19
2023-01-22T19:00:59.491Z,99121.16
2023-01-22T19:03:27.562Z,99121.81
2023-01-22T19:05:59.652Z,99134.34
2023-01-22T19:08:27.695Z,99131.56
2023-01-22T19:10:55.728Z,99131.66
2023-01-22T19:13:24.275Z,99137.03
2023-01-22T19:15:52.348Z,99132.44
2023-01-22T19:18:23.273Z,99140.94
2023-01-22T19:20:51.323Z,99132.38
2023-01-22T19:23:22.085Z,99143.75
2023-01-22T19:25:50.336Z,99145.44
2023-01-22T19:28:19.282Z,99147.75
2023-01-22T19:30:47.338Z,99144.84
2023-01-22T19:33:15.464Z,99153.25
2023-01-22T19:35:47.778Z,99153.44
2023-01-22T19:38:17.980Z,99155.22
2023-01-22T19:40:47.573Z,99154.16
2023-01-22T19:43:16.036Z,99152.91
2023-01-22T19:45:44.105Z,99156.78
2023-01-22T19:48:12.264Z,99160.13
2023-01-22T19:50:41.591Z,99168.00
2023-01-22T19:53:09.707Z,99154.00
2023-01-22T19:55:38.001Z,99164.28
2023-01-22T19:58:07.405Z,99165.53
2023-01-22T20:00:35.874Z,99169.66
2023-01-22T20:03:06.651Z,99165.34
2023-01-22T20:05:35.626Z,99164.72
2023-01-22T20:08:03.699Z,99163.78
2023-01-22T20:10:32.993Z,99161.16
2023-01-22T20:13:01.564Z,99159.22
2023-01-22T20:15:31.159Z,99167.22
2023-01-22T20:17:59.187Z,99173.00
2023-01-22T20:20:27.852Z,99174.66
2023-01-22T20:22:56.020Z,99174.28
2023-01-22T20:25:24.197Z,99172.41
2023-01-22T20:27:52.466Z,99171.56
2023-01-22T20:30:20.652Z,99180.09
2023-01-22T20:32:50.153Z,99180.19
2023-01-22T20:35:19.385Z,99177.16
2023-01-22T20:37:47.720Z,99185.84
2023-01-22T20:40:15.726Z,99177.06
2023-01-22T20:42:44.050Z,99182.34
2023-01-22T20:45:12.093Z,99179.44
2023-01-22T20:47:40.049Z,99175.69
2023-01-22T20:50:10.759Z,99178.53
2023-01-22T20:52:39.389Z,99175.69
2023-01-22T20:55:10.061Z,99171.16
2023-01-22T20:57:38.077Z,99171.44
2023-01-22T21:00:07.403Z,99181.00
2023-01-22T21:02:35.454Z,99176.84
2023-01-22T21:05:03.933Z,99176.63
2023-01-22T21:07:33.530Z,99179.22
2023-01-22T21:10:01.642Z,99180.63
2023-01-22T21:12:29.831Z,99189.69
2023-01-22T21:14:57.768Z,99186.25
2023-01-22T21:17:25.829Z,99189.78
2023-01-22T21:19:55.287Z,99196.72
2023-01-22T21:22:23.263Z,99195.84
2023-01-22T21:24:52.766Z,99192.44
2023-01-22T21:27:20.846Z,99192.22
2023-01-22T21:29:50.417Z,99188.69
2023-01-22T21:32:19.372Z,99190.44
2023-01-22T21:34:48.271Z,99191.47
2023-01-22T21:37:16.284Z,99188.50
2023-01-22T21:39:45.342Z,99179.09
2023-01-22T21:42:32.184Z,99180.59
2023-01-22T21:45:18.051Z,99183.09
2023-01-22T21:47:46.033Z,99180.41
2023-01-22T21:50:14.032Z,99174.22
2023-01-22T21:52:44.840Z,99173.44
2023-01-22T21:55:14.067Z,99169.41
2023-01-22T21:57:44.199Z,99174.03
2023-01-22T22:00:13.799Z,99174.50
2023-01-22T22:02:45.247Z,99176.69
2023-01-22T22:05:13.305Z,99177.75
2023-01-22T22:07:41.343Z,99171.81
2023-01-22T22:10:12.665Z,99178.72
2023-01-22T22:12:40.689Z,99161.16
2023-01-22T22:15:11.688Z,99170.84
2023-01-22T22:17:39.730Z,99166.59
2023-01-22T22:20:10.056Z,99162.94
2023-01-22T22:22:38.176Z,99167.41
2023-01-22T22:25:06.999Z,99165.69
2023-01-22T22:27:35.100Z,99163.50
2023-01-22T22:30:04.367Z,99165.75
2023-01-22T22:32:34.256Z,99150.75
2023-01-22T22:35:03.638Z,99160.44
2023-01-22T22:37:31.710Z,99166.59
2023-01-22T22:40:02.632Z,99169.22
2023-01-22T22:42:30.681Z,99167.16
2023-01-22T22:44:58.696Z,99175.72
2023-01-22T22:47:26.894Z,99179.38
2023-01-22T22:49:56.256Z,99171.69
2023-01-22T22:52:24.241Z,99181.41
2023-01-22T22:54:52.325Z,99180.59
2023-01-22T22:57:20.471Z,99181.84
2023-01-22T22:59:48.546Z,99182.22
2023-01-22T23:02:16.694Z,99176.31
2023-01-22T23:04:45.033Z,99195.88
2023-01-22T23:07:14.576Z,99187.09
2023-01-22T23:09:42.628Z,99187.03
2023-01-22T23:12:10.728Z,99196.41
2023-01-22T23:14:38.782Z,99193.72
2023-01-22T23:17:06.820Z,99187.66
2023-01-22T23:19:35.033Z,99180.94
2023-01-22T23:22:03.156Z,99179.75
2023-01-22T23:24:34.049Z,99176.38
2023-01-22T23:27:02.071Z,99182.69
2023-01-22T23:29:30.090Z,99179.78
2023-01-22T23:31:58.606Z,99183.25
2023-01-22T23:34:26.609Z,99175.72
2023-01-22T23:36:54.685Z,99180.94
2023-01-22T23:39:22.913Z,99179.13
2023-01-22T23:41:52.339Z,99185.06
2023-01-22T23:44:20.543Z,99178.31
2023-01-22T23:46:50.978Z,99173.91
2023-01-22T23:49:22.176Z,99175.78
2023-01-22T23:51:52.721Z,99173.88
2023-01-22T23:54:20.770Z,99178.72
2023-01-22T23:56:48.799Z,99173.25
2023-01-22T23:59:18.283Z,99180.50
